sensor_id;sensor_type;location;lat;lon;timestamp;P1;durP1;ratioP1;P2;durP2;ratioP2
60068;SDS011;45945;53.350;55.922;2023-06-22T00:00:00;11.55;;;5.32;;
60068;SDS011;45945;53.350;55.922;2023-06-22T00:01:04;13.68;;;5.53;;
60068;SDS011;45945;53.350;55.922;2023-06-22T00:02:05;12.07;;;5.93;;
60068;SDS011;45945;53.350;55.922;2023-06-22T00:03:06;12.40;;;6.07;;
60068;SDS011;45945;53.350;55.922;2023-06-22T00:04:06;13.45;;;5.50;;
60068;SDS011;45945;53.350;55.922;2023-06-22T00:05:07;11.95;;;5.43;;
60068;SDS011;45945;53.350;55.922;2023-06-22T00:06:08;11.15;;;5.43;;
60068;SDS011;45945;53.350;55.922;2023-06-22T00:07:09;10.52;;;5.70;;
60068;SDS011;45945;53.350;55.922;2023-06-22T00:08:10;13.60;;;6.13;;
60068;SDS011;45945;53.350;55.922;2023-06-22T00:09:11;12.52;;;6.57;;
60068;SDS011;45945;53.350;55.922;2023-06-22T00:10:12;13.82;;;6.35;;
60068;SDS011;45945;53.350;55.922;2023-06-22T00:11:13;14.30;;;7.40;;
60068;SDS011;45945;53.350;55.922;2023-06-22T00:12:14;15.23;;;8.02;;
60068;SDS011;45945;53.350;55.922;2023-06-22T00:13:15;16.20;;;8.40;;
60068;SDS011;45945;53.350;55.922;2023-06-22T00:14:16;16.95;;;8.50;;
60068;SDS011;45945;53.350;55.922;2023-06-22T00:15:17;18.98;;;9.40;;
60068;SDS011;45945;53.350;55.922;2023-06-22T00:16:18;20.08;;;10.32;;
60068;SDS011;45945;53.350;55.922;2023-06-22T00:17:19;20.88;;;9.80;;
60068;SDS011;45945;53.350;55.922;2023-06-22T00:18:19;19.33;;;10.63;;
60068;SDS011;45945;53.350;55.922;2023-06-22T00:19:21;20.33;;;10.63;;
60068;SDS011;45945;53.350;55.922;2023-06-22T00:20:22;19.15;;;9.98;;
60068;SDS011;45945;53.350;55.922;2023-06-22T00:21:23;19.92;;;10.05;;
60068;SDS011;45945;53.350;55.922;2023-06-22T00:22:24;23.60;;;11.55;;
60068;SDS011;45945;53.350;55.922;2023-06-22T00:23:28;21.83;;;11.70;;
60068;SDS011;45945;53.350;55.922;2023-06-22T00:24:34;23.55;;;12.05;;
60068;SDS011;45945;53.350;55.922;2023-06-22T00:25:36;24.50;;;11.65;;
60068;SDS011;45945;53.350;55.922;2023-06-22T00:26:36;22.85;;;12.00;;
60068;SDS011;45945;53.350;55.922;2023-06-22T00:27:38;21.50;;;12.43;;
60068;SDS011;45945;53.350;55.922;2023-06-22T00:28:40;24.58;;;13.00;;
60068;SDS011;45945;53.350;55.922;2023-06-22T00:29:41;26.05;;;13.20;;
60068;SDS011;45945;53.350;55.922;2023-06-22T00:30:42;24.35;;;12.85;;
60068;SDS011;45945;53.350;55.922;2023-06-22T00:31:43;23.35;;;12.90;;
60068;SDS011;45945;53.350;55.922;2023-06-22T00:32:44;25.92;;;13.45;;
60068;SDS011;45945;53.350;55.922;2023-06-22T00:33:45;26.15;;;13.98;;
60068;SDS011;45945;53.350;55.922;2023-06-22T00:34:47;27.33;;;14.07;;
60068;SDS011;45945;53.350;55.922;2023-06-22T00:35:48;25.00;;;13.52;;
60068;SDS011;45945;53.350;55.922;2023-06-22T00:36:49;28.02;;;14.07;;
60068;SDS011;45945;53.350;55.922;2023-06-22T00:37:52;28.23;;;12.85;;
60068;SDS011;45945;53.350;55.922;2023-06-22T00:38:58;25.02;;;12.65;;
60068;SDS011;45945;53.350;55.922;2023-06-22T00:39:59;22.00;;;11.25;;
60068;SDS011;45945;53.350;55.922;2023-06-22T00:40:59;19.30;;;10.80;;
60068;SDS011;45945;53.350;55.922;2023-06-22T00:42:00;21.40;;;9.98;;
60068;SDS011;45945;53.350;55.922;2023-06-22T00:43:01;19.50;;;9.98;;
60068;SDS011;45945;53.350;55.922;2023-06-22T00:44:03;20.23;;;10.45;;
60068;SDS011;45945;53.350;55.922;2023-06-22T00:45:06;17.45;;;9.50;;
60068;SDS011;45945;53.350;55.922;2023-06-22T00:46:08;19.33;;;10.25;;
60068;SDS011;45945;53.350;55.922;2023-06-22T00:47:13;17.13;;;9.30;;
60068;SDS011;45945;53.350;55.922;2023-06-22T00:48:16;18.13;;;9.20;;
60068;SDS011;45945;53.350;55.922;2023-06-22T00:49:18;18.83;;;8.52;;
60068;SDS011;45945;53.350;55.922;2023-06-22T00:50:22;14.57;;;7.38;;
60068;SDS011;45945;53.350;55.922;2023-06-22T00:51:23;13.68;;;6.60;;
60068;SDS011;45945;53.350;55.922;2023-06-22T00:52:25;13.50;;;6.32;;
60068;SDS011;45945;53.350;55.922;2023-06-22T00:53:30;15.07;;;6.95;;
60068;SDS011;45945;53.350;55.922;2023-06-22T00:54:36;11.35;;;5.78;;
60068;SDS011;45945;53.350;55.922;2023-06-22T00:55:37;12.40;;;6.45;;
60068;SDS011;45945;53.350;55.922;2023-06-22T00:56:40;12.93;;;6.75;;
60068;SDS011;45945;53.350;55.922;2023-06-22T00:57:41;16.92;;;6.53;;
60068;SDS011;45945;53.350;55.922;2023-06-22T00:58:42;12.38;;;5.75;;
60068;SDS011;45945;53.350;55.922;2023-06-22T00:59:44;12.60;;;6.10;;
60068;SDS011;45945;53.350;55.922;2023-06-22T01:00:45;11.38;;;5.60;;
60068;SDS011;45945;53.350;55.922;2023-06-22T01:01:46;11.40;;;5.28;;
60068;SDS011;45945;53.350;55.922;2023-06-22T01:02:47;10.35;;;5.53;;
60068;SDS011;45945;53.350;55.922;2023-06-22T01:03:52;11.60;;;5.90;;
60068;SDS011;45945;53.350;55.922;2023-06-22T01:04:53;12.13;;;5.97;;
60068;SDS011;45945;53.350;55.922;2023-06-22T01:05:58;13.30;;;6.25;;
60068;SDS011;45945;53.350;55.922;2023-06-22T01:08:08;12.88;;;6.32;;
60068;SDS011;45945;53.350;55.922;2023-06-22T01:09:26;15.98;;;6.40;;
60068;SDS011;45945;53.350;55.922;2023-06-22T01:11:36;13.75;;;5.90;;
60068;SDS011;45945;53.350;55.922;2023-06-22T01:12:40;14.80;;;7.05;;
60068;SDS011;45945;53.350;55.922;2023-06-22T01:13:53;14.98;;;7.63;;
60068;SDS011;45945;53.350;55.922;2023-06-22T01:15:01;13.13;;;7.20;;
60068;SDS011;45945;53.350;55.922;2023-06-22T01:17:06;13.95;;;6.50;;
60068;SDS011;45945;53.350;55.922;2023-06-22T01:18:08;17.58;;;6.65;;
60068;SDS011;45945;53.350;55.922;2023-06-22T01:20:14;16.08;;;7.80;;
60068;SDS011;45945;53.350;55.922;2023-06-22T01:21:16;18.17;;;8.20;;
60068;SDS011;45945;53.350;55.922;2023-06-22T01:22:19;17.38;;;8.35;;
60068;SDS011;45945;53.350;55.922;2023-06-22T01:24:27;17.63;;;8.65;;
60068;SDS011;45945;53.350;55.922;2023-06-22T01:25:36;17.10;;;9.00;;
60068;SDS011;45945;53.350;55.922;2023-06-22T01:29:08;18.40;;;9.18;;
60068;SDS011;45945;53.350;55.922;2023-06-22T01:30:13;19.73;;;10.38;;
60068;SDS011;45945;53.350;55.922;2023-06-22T01:31:16;25.40;;;10.90;;
60068;SDS011;45945;53.350;55.922;2023-06-22T01:32:22;19.05;;;10.23;;
60068;SDS011;45945;53.350;55.922;2023-06-22T01:33:23;22.38;;;11.18;;
60068;SDS011;45945;53.350;55.922;2023-06-22T01:34:26;20.42;;;10.85;;
60068;SDS011;45945;53.350;55.922;2023-06-22T01:35:27;22.95;;;11.60;;
60068;SDS011;45945;53.350;55.922;2023-06-22T01:36:29;21.80;;;11.65;;
60068;SDS011;45945;53.350;55.922;2023-06-22T01:37:31;21.90;;;10.80;;
60068;SDS011;45945;53.350;55.922;2023-06-22T01:38:33;26.33;;;12.07;;
60068;SDS011;45945;53.350;55.922;2023-06-22T01:39:34;24.00;;;12.45;;
60068;SDS011;45945;53.350;55.922;2023-06-22T01:40:35;27.92;;;13.35;;
60068;SDS011;45945;53.350;55.922;2023-06-22T01:41:37;27.85;;;12.65;;
60068;SDS011;45945;53.350;55.922;2023-06-22T01:42:38;23.52;;;12.88;;
60068;SDS011;45945;53.350;55.922;2023-06-22T01:43:42;26.27;;;13.23;;
60068;SDS011;45945;53.350;55.922;2023-06-22T01:44:43;27.70;;;14.77;;
60068;SDS011;45945;53.350;55.922;2023-06-22T01:45:44;24.73;;;15.43;;
60068;SDS011;45945;53.350;55.922;2023-06-22T01:46:44;31.33;;;15.80;;
60068;SDS011;45945;53.350;55.922;2023-06-22T01:47:48;27.70;;;14.77;;
60068;SDS011;45945;53.350;55.922;2023-06-22T01:48:49;25.05;;;13.80;;
60068;SDS011;45945;53.350;55.922;2023-06-22T01:49:50;25.30;;;13.05;;
60068;SDS011;45945;53.350;55.922;2023-06-22T01:50:55;26.63;;;12.32;;
60068;SDS011;45945;53.350;55.922;2023-06-22T01:51:56;26.40;;;11.98;;
60068;SDS011;45945;53.350;55.922;2023-06-22T01:52:57;27.95;;;11.85;;
60068;SDS011;45945;53.350;55.922;2023-06-22T01:54:01;31.77;;;11.98;;
60068;SDS011;45945;53.350;55.922;2023-06-22T01:55:02;21.95;;;10.35;;
60068;SDS011;45945;53.350;55.922;2023-06-22T01:56:05;24.08;;;11.48;;
60068;SDS011;45945;53.350;55.922;2023-06-22T01:57:08;20.63;;;9.35;;
60068;SDS011;45945;53.350;55.922;2023-06-22T01:58:09;26.58;;;10.27;;
60068;SDS011;45945;53.350;55.922;2023-06-22T01:59:18;22.23;;;8.57;;
60068;SDS011;45945;53.350;55.922;2023-06-22T02:00:21;22.63;;;8.40;;
60068;SDS011;45945;53.350;55.922;2023-06-22T02:01:25;20.50;;;9.65;;
60068;SDS011;45945;53.350;55.922;2023-06-22T02:02:40;21.58;;;9.70;;
60068;SDS011;45945;53.350;55.922;2023-06-22T02:03:46;22.55;;;8.95;;
60068;SDS011;45945;53.350;55.922;2023-06-22T02:04:51;19.83;;;9.45;;
60068;SDS011;45945;53.350;55.922;2023-06-22T02:05:54;23.63;;;10.40;;
60068;SDS011;45945;53.350;55.922;2023-06-22T02:06:58;22.38;;;9.68;;
60068;SDS011;45945;53.350;55.922;2023-06-22T02:08:02;22.20;;;10.15;;
60068;SDS011;45945;53.350;55.922;2023-06-22T02:09:07;22.73;;;11.32;;
60068;SDS011;45945;53.350;55.922;2023-06-22T02:10:09;27.92;;;11.23;;
60068;SDS011;45945;53.350;55.922;2023-06-22T02:11:13;28.27;;;10.70;;
60068;SDS011;45945;53.350;55.922;2023-06-22T02:12:17;20.42;;;9.18;;
60068;SDS011;45945;53.350;55.922;2023-06-22T02:13:19;27.38;;;9.50;;
60068;SDS011;45945;53.350;55.922;2023-06-22T02:14:21;24.42;;;10.00;;
60068;SDS011;45945;53.350;55.922;2023-06-22T02:15:22;29.27;;;12.05;;
60068;SDS011;45945;53.350;55.922;2023-06-22T02:16:27;29.48;;;12.13;;
60068;SDS011;45945;53.350;55.922;2023-06-22T02:17:33;24.90;;;12.80;;
60068;SDS011;45945;53.350;55.922;2023-06-22T02:18:34;25.17;;;12.00;;
60068;SDS011;45945;53.350;55.922;2023-06-22T02:19:37;27.17;;;11.63;;
60068;SDS011;45945;53.350;55.922;2023-06-22T02:20:38;25.50;;;10.50;;
60068;SDS011;45945;53.350;55.922;2023-06-22T02:21:39;23.30;;;10.90;;
60068;SDS011;45945;53.350;55.922;2023-06-22T02:22:40;29.27;;;11.15;;
60068;SDS011;45945;53.350;55.922;2023-06-22T02:23:41;35.03;;;12.18;;
60068;SDS011;45945;53.350;55.922;2023-06-22T02:24:42;26.67;;;11.38;;
60068;SDS011;45945;53.350;55.922;2023-06-22T02:25:43;30.02;;;11.90;;
60068;SDS011;45945;53.350;55.922;2023-06-22T02:26:45;29.90;;;10.95;;
60068;SDS011;45945;53.350;55.922;2023-06-22T02:27:46;30.45;;;13.40;;
60068;SDS011;45945;53.350;55.922;2023-06-22T02:28:47;32.45;;;10.50;;
60068;SDS011;45945;53.350;55.922;2023-06-22T02:29:51;27.52;;;11.73;;
60068;SDS011;45945;53.350;55.922;2023-06-22T02:30:52;23.10;;;10.15;;
60068;SDS011;45945;53.350;55.922;2023-06-22T02:31:53;28.63;;;9.90;;
60068;SDS011;45945;53.350;55.922;2023-06-22T02:32:54;20.30;;;7.72;;
60068;SDS011;45945;53.350;55.922;2023-06-22T02:33:59;22.50;;;7.30;;
60068;SDS011;45945;53.350;55.922;2023-06-22T02:35:00;18.38;;;7.35;;
60068;SDS011;45945;53.350;55.922;2023-06-22T02:36:04;19.25;;;7.68;;
60068;SDS011;45945;53.350;55.922;2023-06-22T02:37:06;21.25;;;6.70;;
60068;SDS011;45945;53.350;55.922;2023-06-22T02:38:07;19.38;;;6.82;;
60068;SDS011;45945;53.350;55.922;2023-06-22T02:39:08;22.45;;;6.95;;
60068;SDS011;45945;53.350;55.922;2023-06-22T02:40:11;19.83;;;7.60;;
60068;SDS011;45945;53.350;55.922;2023-06-22T02:41:12;18.38;;;6.32;;
60068;SDS011;45945;53.350;55.922;2023-06-22T02:42:13;14.55;;;6.22;;
60068;SDS011;45945;53.350;55.922;2023-06-22T02:43:17;25.27;;;8.43;;
60068;SDS011;45945;53.350;55.922;2023-06-22T02:44:18;26.83;;;12.35;;
60068;SDS011;45945;53.350;55.922;2023-06-22T02:45:19;27.52;;;13.63;;
60068;SDS011;45945;53.350;55.922;2023-06-22T02:46:20;23.65;;;11.80;;
60068;SDS011;45945;53.350;55.922;2023-06-22T02:47:22;28.52;;;12.68;;
60068;SDS011;45945;53.350;55.922;2023-06-22T02:48:24;21.58;;;9.20;;
60068;SDS011;45945;53.350;55.922;2023-06-22T02:49:25;17.55;;;9.55;;
60068;SDS011;45945;53.350;55.922;2023-06-22T02:50:26;20.55;;;9.50;;
60068;SDS011;45945;53.350;55.922;2023-06-22T02:51:28;22.65;;;9.63;;
60068;SDS011;45945;53.350;55.922;2023-06-22T02:52:29;20.50;;;10.02;;
60068;SDS011;45945;53.350;55.922;2023-06-22T02:53:30;21.73;;;10.18;;
60068;SDS011;45945;53.350;55.922;2023-06-22T02:54:32;20.80;;;10.55;;
60068;SDS011;45945;53.350;55.922;2023-06-22T02:55:34;22.10;;;11.07;;
60068;SDS011;45945;53.350;55.922;2023-06-22T02:56:35;25.65;;;9.15;;
60068;SDS011;45945;53.350;55.922;2023-06-22T02:57:37;19.83;;;9.23;;
60068;SDS011;45945;53.350;55.922;2023-06-22T02:58:38;22.27;;;9.32;;
60068;SDS011;45945;53.350;55.922;2023-06-22T02:59:42;20.52;;;9.23;;
60068;SDS011;45945;53.350;55.922;2023-06-22T03:00:45;19.50;;;8.85;;
60068;SDS011;45945;53.350;55.922;2023-06-22T03:01:46;21.33;;;10.10;;
60068;SDS011;45945;53.350;55.922;2023-06-22T03:02:57;18.88;;;9.05;;
60068;SDS011;45945;53.350;55.922;2023-06-22T03:03:59;20.80;;;9.95;;
60068;SDS011;45945;53.350;55.922;2023-06-22T03:05:01;23.08;;;11.35;;
60068;SDS011;45945;53.350;55.922;2023-06-22T03:06:05;20.92;;;11.35;;
60068;SDS011;45945;53.350;55.922;2023-06-22T03:07:05;15.98;;;8.85;;
60068;SDS011;45945;53.350;55.922;2023-06-22T03:08:07;13.88;;;7.30;;
60068;SDS011;45945;53.350;55.922;2023-06-22T03:09:09;14.43;;;6.88;;
60068;SDS011;45945;53.350;55.922;2023-06-22T03:10:11;12.73;;;6.65;;
60068;SDS011;45945;53.350;55.922;2023-06-22T03:11:12;16.85;;;7.20;;
60068;SDS011;45945;53.350;55.922;2023-06-22T03:12:13;17.60;;;8.75;;
60068;SDS011;45945;53.350;55.922;2023-06-22T03:13:26;15.88;;;8.35;;
60068;SDS011;45945;53.350;55.922;2023-06-22T03:14:27;19.25;;;9.77;;
60068;SDS011;45945;53.350;55.922;2023-06-22T03:15:29;17.88;;;9.65;;
60068;SDS011;45945;53.350;55.922;2023-06-22T03:16:32;16.98;;;9.40;;
60068;SDS011;45945;53.350;55.922;2023-06-22T03:17:34;20.88;;;10.43;;
60068;SDS011;45945;53.350;55.922;2023-06-22T03:18:36;20.30;;;9.75;;
60068;SDS011;45945;53.350;55.922;2023-06-22T03:19:37;20.30;;;10.35;;
60068;SDS011;45945;53.350;55.922;2023-06-22T03:20:38;19.80;;;11.23;;
60068;SDS011;45945;53.350;55.922;2023-06-22T03:21:39;20.48;;;11.85;;
60068;SDS011;45945;53.350;55.922;2023-06-22T03:22:41;25.27;;;12.85;;
60068;SDS011;45945;53.350;55.922;2023-06-22T03:23:42;22.10;;;12.98;;
60068;SDS011;45945;53.350;55.922;2023-06-22T03:24:43;26.63;;;12.48;;
60068;SDS011;45945;53.350;55.922;2023-06-22T03:25:44;24.67;;;13.15;;
60068;SDS011;45945;53.350;55.922;2023-06-22T03:26:45;23.90;;;14.02;;
60068;SDS011;45945;53.350;55.922;2023-06-22T03:27:47;26.02;;;12.63;;
60068;SDS011;45945;53.350;55.922;2023-06-22T03:28:49;24.67;;;13.48;;
60068;SDS011;45945;53.350;55.922;2023-06-22T03:29:50;25.88;;;14.07;;
60068;SDS011;45945;53.350;55.922;2023-06-22T03:30:51;23.50;;;13.07;;
60068;SDS011;45945;53.350;55.922;2023-06-22T03:31:52;26.55;;;14.10;;
60068;SDS011;45945;53.350;55.922;2023-06-22T03:32:53;24.65;;;13.50;;
60068;SDS011;45945;53.350;55.922;2023-06-22T03:33:54;24.65;;;13.20;;
60068;SDS011;45945;53.350;55.922;2023-06-22T03:34:57;23.92;;;13.70;;
60068;SDS011;45945;53.350;55.922;2023-06-22T03:36:00;21.50;;;13.02;;
60068;SDS011;45945;53.350;55.922;2023-06-22T03:37:01;26.88;;;14.15;;
60068;SDS011;45945;53.350;55.922;2023-06-22T03:38:02;23.92;;;13.98;;
60068;SDS011;45945;53.350;55.922;2023-06-22T03:39:05;23.83;;;14.15;;
60068;SDS011;45945;53.350;55.922;2023-06-22T03:40:06;27.40;;;15.38;;
60068;SDS011;45945;53.350;55.922;2023-06-22T03:41:09;23.20;;;14.15;;
60068;SDS011;45945;53.350;55.922;2023-06-22T03:42:09;25.33;;;13.98;;
60068;SDS011;45945;53.350;55.922;2023-06-22T03:43:10;26.85;;;13.95;;
60068;SDS011;45945;53.350;55.922;2023-06-22T03:44:11;23.10;;;13.60;;
60068;SDS011;45945;53.350;55.922;2023-06-22T03:45:13;25.40;;;13.73;;
60068;SDS011;45945;53.350;55.922;2023-06-22T03:46:15;22.33;;;12.98;;
60068;SDS011;45945;53.350;55.922;2023-06-22T03:47:17;22.20;;;13.50;;
60068;SDS011;45945;53.350;55.922;2023-06-22T03:48:18;21.95;;;13.60;;
60068;SDS011;45945;53.350;55.922;2023-06-22T03:49:19;21.70;;;12.00;;
60068;SDS011;45945;53.350;55.922;2023-06-22T03:50:20;21.15;;;12.52;;
60068;SDS011;45945;53.350;55.922;2023-06-22T03:51:21;20.65;;;12.15;;
60068;SDS011;45945;53.350;55.922;2023-06-22T03:52:22;19.58;;;11.85;;
60068;SDS011;45945;53.350;55.922;2023-06-22T03:53:23;20.90;;;11.70;;
60068;SDS011;45945;53.350;55.922;2023-06-22T03:54:23;20.70;;;11.88;;
60068;SDS011;45945;53.350;55.922;2023-06-22T03:55:24;19.25;;;11.85;;
60068;SDS011;45945;53.350;55.922;2023-06-22T03:56:25;20.02;;;11.43;;
60068;SDS011;45945;53.350;55.922;2023-06-22T03:57:26;22.88;;;11.05;;
60068;SDS011;45945;53.350;55.922;2023-06-22T03:58:27;18.85;;;11.70;;
60068;SDS011;45945;53.350;55.922;2023-06-22T03:59:29;19.83;;;10.02;;
60068;SDS011;45945;53.350;55.922;2023-06-22T04:00:30;19.25;;;11.18;;
60068;SDS011;45945;53.350;55.922;2023-06-22T04:01:31;19.98;;;11.40;;
60068;SDS011;45945;53.350;55.922;2023-06-22T04:02:32;21.25;;;13.30;;
60068;SDS011;45945;53.350;55.922;2023-06-22T04:03:33;22.08;;;13.10;;
60068;SDS011;45945;53.350;55.922;2023-06-22T04:04:34;20.88;;;12.98;;
60068;SDS011;45945;53.350;55.922;2023-06-22T04:05:35;21.40;;;12.25;;
60068;SDS011;45945;53.350;55.922;2023-06-22T04:06:36;21.17;;;12.90;;
60068;SDS011;45945;53.350;55.922;2023-06-22T04:07:37;22.90;;;12.90;;
60068;SDS011;45945;53.350;55.922;2023-06-22T04:08:38;19.90;;;11.95;;
60068;SDS011;45945;53.350;55.922;2023-06-22T04:09:39;21.30;;;10.77;;
60068;SDS011;45945;53.350;55.922;2023-06-22T04:10:40;17.85;;;10.88;;
60068;SDS011;45945;53.350;55.922;2023-06-22T04:11:41;18.35;;;10.85;;
60068;SDS011;45945;53.350;55.922;2023-06-22T04:12:42;19.15;;;10.40;;
60068;SDS011;45945;53.350;55.922;2023-06-22T04:13:43;17.02;;;9.30;;
60068;SDS011;45945;53.350;55.922;2023-06-22T04:14:43;15.32;;;8.55;;
60068;SDS011;45945;53.350;55.922;2023-06-22T04:15:44;14.50;;;8.27;;
60068;SDS011;45945;53.350;55.922;2023-06-22T04:16:45;13.05;;;7.72;;
60068;SDS011;45945;53.350;55.922;2023-06-22T04:17:47;14.95;;;8.20;;
60068;SDS011;45945;53.350;55.922;2023-06-22T04:18:48;16.23;;;8.75;;
60068;SDS011;45945;53.350;55.922;2023-06-22T04:19:49;15.20;;;7.85;;
60068;SDS011;45945;53.350;55.922;2023-06-22T04:20:50;15.18;;;8.63;;
60068;SDS011;45945;53.350;55.922;2023-06-22T04:21:51;14.35;;;8.57;;
60068;SDS011;45945;53.350;55.922;2023-06-22T04:22:54;16.70;;;8.93;;
60068;SDS011;45945;53.350;55.922;2023-06-22T04:23:55;18.58;;;9.35;;
60068;SDS011;45945;53.350;55.922;2023-06-22T04:24:56;17.67;;;9.55;;
60068;SDS011;45945;53.350;55.922;2023-06-22T04:25:57;15.88;;;9.30;;
60068;SDS011;45945;53.350;55.922;2023-06-22T04:26:59;17.48;;;8.75;;
60068;SDS011;45945;53.350;55.922;2023-06-22T04:28:03;14.23;;;8.15;;
60068;SDS011;45945;53.350;55.922;2023-06-22T04:29:04;13.68;;;8.55;;
60068;SDS011;45945;53.350;55.922;2023-06-22T04:30:09;16.38;;;9.10;;
60068;SDS011;45945;53.350;55.922;2023-06-22T04:31:11;17.27;;;10.07;;
60068;SDS011;45945;53.350;55.922;2023-06-22T04:32:12;19.92;;;11.13;;
60068;SDS011;45945;53.350;55.922;2023-06-22T04:33:14;20.02;;;10.68;;
60068;SDS011;45945;53.350;55.922;2023-06-22T04:34:15;19.17;;;11.05;;
60068;SDS011;45945;53.350;55.922;2023-06-22T04:35:17;16.60;;;10.27;;
60068;SDS011;45945;53.350;55.922;2023-06-22T04:36:18;15.50;;;9.30;;
60068;SDS011;45945;53.350;55.922;2023-06-22T04:37:18;15.55;;;10.23;;
60068;SDS011;45945;53.350;55.922;2023-06-22T04:38:19;18.58;;;10.80;;
60068;SDS011;45945;53.350;55.922;2023-06-22T04:39:22;18.48;;;10.25;;
60068;SDS011;45945;53.350;55.922;2023-06-22T04:40:23;20.55;;;10.90;;
60068;SDS011;45945;53.350;55.922;2023-06-22T04:41:24;19.15;;;9.82;;
60068;SDS011;45945;53.350;55.922;2023-06-22T04:42:26;15.48;;;9.40;;
60068;SDS011;45945;53.350;55.922;2023-06-22T04:43:27;14.05;;;9.00;;
60068;SDS011;45945;53.350;55.922;2023-06-22T04:44:31;14.10;;;7.57;;
60068;SDS011;45945;53.350;55.922;2023-06-22T04:45:32;14.85;;;8.55;;
60068;SDS011;45945;53.350;55.922;2023-06-22T04:46:34;14.68;;;7.93;;
60068;SDS011;45945;53.350;55.922;2023-06-22T04:47:38;18.25;;;8.27;;
60068;SDS011;45945;53.350;55.922;2023-06-22T04:48:40;14.85;;;8.55;;
60068;SDS011;45945;53.350;55.922;2023-06-22T04:49:40;18.48;;;9.57;;
60068;SDS011;45945;53.350;55.922;2023-06-22T04:50:44;15.82;;;10.02;;
60068;SDS011;45945;53.350;55.922;2023-06-22T04:51:44;16.10;;;10.50;;
60068;SDS011;45945;53.350;55.922;2023-06-22T04:52:45;18.58;;;10.32;;
60068;SDS011;45945;53.350;55.922;2023-06-22T04:53:46;17.60;;;9.57;;
60068;SDS011;45945;53.350;55.922;2023-06-22T04:54:47;17.85;;;10.50;;
60068;SDS011;45945;53.350;55.922;2023-06-22T04:55:48;19.27;;;10.98;;
60068;SDS011;45945;53.350;55.922;2023-06-22T04:56:50;18.05;;;10.35;;
60068;SDS011;45945;53.350;55.922;2023-06-22T04:57:57;17.98;;;10.73;;
60068;SDS011;45945;53.350;55.922;2023-06-22T04:59:05;18.65;;;11.52;;
60068;SDS011;45945;53.350;55.922;2023-06-22T05:00:06;21.40;;;12.68;;
60068;SDS011;45945;53.350;55.922;2023-06-22T05:01:13;20.10;;;10.85;;
60068;SDS011;45945;53.350;55.922;2023-06-22T05:02:14;18.23;;;11.43;;
60068;SDS011;45945;53.350;55.922;2023-06-22T05:03:15;19.25;;;11.45;;
60068;SDS011;45945;53.350;55.922;2023-06-22T05:04:19;19.75;;;11.05;;
60068;SDS011;45945;53.350;55.922;2023-06-22T05:05:19;17.17;;;10.73;;
60068;SDS011;45945;53.350;55.922;2023-06-22T05:06:23;18.25;;;10.73;;
60068;SDS011;45945;53.350;55.922;2023-06-22T05:07:28;13.70;;;8.90;;
60068;SDS011;45945;53.350;55.922;2023-06-22T05:08:29;13.80;;;8.52;;
60068;SDS011;45945;53.350;55.922;2023-06-22T05:09:30;12.70;;;7.88;;
60068;SDS011;45945;53.350;55.922;2023-06-22T05:10:31;12.13;;;7.32;;
60068;SDS011;45945;53.350;55.922;2023-06-22T05:11:32;13.23;;;7.47;;
60068;SDS011;45945;53.350;55.922;2023-06-22T05:12:32;14.55;;;9.43;;
60068;SDS011;45945;53.350;55.922;2023-06-22T05:13:33;17.15;;;10.82;;
60068;SDS011;45945;53.350;55.922;2023-06-22T05:14:34;19.38;;;12.07;;
60068;SDS011;45945;53.350;55.922;2023-06-22T05:15:35;15.57;;;9.85;;
60068;SDS011;45945;53.350;55.922;2023-06-22T05:16:43;15.68;;;9.52;;
60068;SDS011;45945;53.350;55.922;2023-06-22T05:17:44;15.32;;;9.68;;
60068;SDS011;45945;53.350;55.922;2023-06-22T05:18:46;14.70;;;9.63;;
60068;SDS011;45945;53.350;55.922;2023-06-22T05:19:47;12.57;;;7.50;;
60068;SDS011;45945;53.350;55.922;2023-06-22T05:20:51;11.20;;;7.05;;
60068;SDS011;45945;53.350;55.922;2023-06-22T05:21:52;11.45;;;6.90;;
60068;SDS011;45945;53.350;55.922;2023-06-22T05:22:53;13.75;;;7.32;;
60068;SDS011;45945;53.350;55.922;2023-06-22T05:23:54;13.02;;;7.00;;
60068;SDS011;45945;53.350;55.922;2023-06-22T05:24:56;11.35;;;6.35;;
60068;SDS011;45945;53.350;55.922;2023-06-22T05:25:57;12.48;;;6.63;;
60068;SDS011;45945;53.350;55.922;2023-06-22T05:26:58;14.15;;;7.03;;
60068;SDS011;45945;53.350;55.922;2023-06-22T05:27:59;10.70;;;6.18;;
60068;SDS011;45945;53.350;55.922;2023-06-22T05:29:01;18.77;;;8.00;;
60068;SDS011;45945;53.350;55.922;2023-06-22T05:30:02;16.73;;;7.80;;
60068;SDS011;45945;53.350;55.922;2023-06-22T05:31:03;15.52;;;8.35;;
60068;SDS011;45945;53.350;55.922;2023-06-22T05:32:04;16.52;;;8.40;;
60068;SDS011;45945;53.350;55.922;2023-06-22T05:33:05;12.77;;;7.13;;
60068;SDS011;45945;53.350;55.922;2023-06-22T05:34:06;12.73;;;6.65;;
60068;SDS011;45945;53.350;55.922;2023-06-22T05:35:07;11.55;;;6.25;;
60068;SDS011;45945;53.350;55.922;2023-06-22T05:36:08;9.13;;;4.78;;
60068;SDS011;45945;53.350;55.922;2023-06-22T05:37:09;10.93;;;5.45;;
60068;SDS011;45945;53.350;55.922;2023-06-22T05:38:10;9.30;;;4.88;;
60068;SDS011;45945;53.350;55.922;2023-06-22T05:39:18;9.32;;;4.72;;
60068;SDS011;45945;53.350;55.922;2023-06-22T05:40:25;10.00;;;5.13;;
60068;SDS011;45945;53.350;55.922;2023-06-22T05:41:27;8.85;;;4.43;;
60068;SDS011;45945;53.350;55.922;2023-06-22T05:42:28;11.07;;;4.90;;
60068;SDS011;45945;53.350;55.922;2023-06-22T05:43:29;11.10;;;5.38;;
60068;SDS011;45945;53.350;55.922;2023-06-22T05:44:30;11.98;;;5.20;;
60068;SDS011;45945;53.350;55.922;2023-06-22T05:45:31;11.38;;;5.82;;
60068;SDS011;45945;53.350;55.922;2023-06-22T05:46:32;9.85;;;4.53;;
60068;SDS011;45945;53.350;55.922;2023-06-22T05:47:33;9.73;;;4.20;;
60068;SDS011;45945;53.350;55.922;2023-06-22T05:48:34;6.78;;;3.50;;
60068;SDS011;45945;53.350;55.922;2023-06-22T05:49:35;8.75;;;3.53;;
60068;SDS011;45945;53.350;55.922;2023-06-22T05:50:36;7.75;;;3.20;;
60068;SDS011;45945;53.350;55.922;2023-06-22T05:51:37;7.05;;;3.83;;
60068;SDS011;45945;53.350;55.922;2023-06-22T05:52:38;7.30;;;3.67;;
60068;SDS011;45945;53.350;55.922;2023-06-22T05:53:39;7.28;;;3.58;;
60068;SDS011;45945;53.350;55.922;2023-06-22T05:54:39;9.10;;;3.60;;
60068;SDS011;45945;53.350;55.922;2023-06-22T05:55:42;7.65;;;3.95;;
60068;SDS011;45945;53.350;55.922;2023-06-22T05:56:43;8.77;;;3.90;;
60068;SDS011;45945;53.350;55.922;2023-06-22T05:57:44;8.45;;;3.78;;
60068;SDS011;45945;53.350;55.922;2023-06-22T05:58:45;8.88;;;4.05;;
60068;SDS011;45945;53.350;55.922;2023-06-22T05:59:46;8.52;;;4.28;;
60068;SDS011;45945;53.350;55.922;2023-06-22T06:00:47;7.40;;;3.25;;
60068;SDS011;45945;53.350;55.922;2023-06-22T06:01:48;13.80;;;3.95;;
60068;SDS011;45945;53.350;55.922;2023-06-22T06:02:52;11.15;;;4.40;;
60068;SDS011;45945;53.350;55.922;2023-06-22T06:03:53;9.45;;;4.07;;
60068;SDS011;45945;53.350;55.922;2023-06-22T06:04:53;8.93;;;4.53;;
60068;SDS011;45945;53.350;55.922;2023-06-22T06:05:54;8.90;;;4.15;;
60068;SDS011;45945;53.350;55.922;2023-06-22T06:06:56;8.60;;;3.95;;
60068;SDS011;45945;53.350;55.922;2023-06-22T06:07:57;9.07;;;4.40;;